sensor_id;sensor_type;location;lat;lon;timestamp;P1;durP1;ratioP1;P2;durP2;ratioP2
57752;SDS011;43583;53.132;6.574;2024-03-02T00:00:14;1.40;;;0.50;;
57752;SDS011;43583;53.132;6.574;2024-03-02T00:02:43;1.40;;;0.70;;
57752;SDS011;43583;53.132;6.574;2024-03-02T00:05:11;1.55;;;0.60;;
57752;SDS011;43583;53.132;6.574;2024-03-02T00:07:40;1.80;;;0.70;;
57752;SDS011;43583;53.132;6.574;2024-03-02T00:10:11;1.02;;;0.50;;
57752;SDS011;43583;53.132;6.574;2024-03-02T00:12:39;1.80;;;0.68;;
57752;SDS011;43583;53.132;6.574;2024-03-02T00:17:53;2.13;;;0.80;;
57752;SDS011;43583;53.132;6.574;2024-03-02T00:20:21;1.10;;;0.63;;
57752;SDS011;43583;53.132;6.574;2024-03-02T00:22:48;1.95;;;0.52;;
57752;SDS011;43583;53.132;6.574;2024-03-02T00:25:15;1.17;;;0.55;;
57752;SDS011;43583;53.132;6.574;2024-03-02T00:27:41;1.90;;;0.70;;
57752;SDS011;43583;53.132;6.574;2024-03-02T00:30:54;3.88;;;1.15;;
57752;SDS011;43583;53.132;6.574;2024-03-02T00:33:13;2.30;;;0.50;;
57752;SDS011;43583;53.132;6.574;2024-03-02T00:35:39;1.65;;;0.60;;
57752;SDS011;43583;53.132;6.574;2024-03-02T00:38:05;2.17;;;0.47;;
57752;SDS011;43583;53.132;6.574;2024-03-02T00:40:31;2.60;;;0.85;;
57752;SDS011;43583;53.132;6.574;2024-03-02T00:42:57;2.45;;;0.93;;
57752;SDS011;43583;53.132;6.574;2024-03-02T00:45:24;1.80;;;0.63;;
57752;SDS011;43583;53.132;6.574;2024-03-02T00:47:51;1.50;;;0.63;;
57752;SDS011;43583;53.132;6.574;2024-03-02T00:50:17;1.98;;;0.60;;
57752;SDS011;43583;53.132;6.574;2024-03-02T00:52:43;1.10;;;0.68;;
57752;SDS011;43583;53.132;6.574;2024-03-02T00:55:09;2.10;;;0.65;;
57752;SDS011;43583;53.132;6.574;2024-03-02T00:57:35;3.47;;;0.65;;
57752;SDS011;43583;53.132;6.574;2024-03-02T01:00:01;2.70;;;0.70;;
57752;SDS011;43583;53.132;6.574;2024-03-02T01:02:28;3.80;;;1.77;;
57752;SDS011;43583;53.132;6.574;2024-03-02T01:04:54;1.08;;;0.50;;
57752;SDS011;43583;53.132;6.574;2024-03-02T01:07:20;2.58;;;0.60;;
57752;SDS011;43583;53.132;6.574;2024-03-02T01:09:45;1.85;;;0.60;;
57752;SDS011;43583;53.132;6.574;2024-03-02T01:12:11;1.85;;;0.57;;
57752;SDS011;43583;53.132;6.574;2024-03-02T01:14:37;1.02;;;0.35;;
57752;SDS011;43583;53.132;6.574;2024-03-02T01:17:02;1.98;;;0.52;;
57752;SDS011;43583;53.132;6.574;2024-03-02T01:19:29;2.47;;;0.60;;
57752;SDS011;43583;53.132;6.574;2024-03-02T01:21:55;1.75;;;0.70;;
57752;SDS011;43583;53.132;6.574;2024-03-02T01:24:21;1.23;;;0.47;;
57752;SDS011;43583;53.132;6.574;2024-03-02T01:26:47;1.48;;;0.35;;
57752;SDS011;43583;53.132;6.574;2024-03-02T01:29:13;1.92;;;0.52;;
57752;SDS011;43583;53.132;6.574;2024-03-02T01:31:38;2.40;;;0.60;;
57752;SDS011;43583;53.132;6.574;2024-03-02T01:34:07;1.60;;;0.60;;
57752;SDS011;43583;53.132;6.574;2024-03-02T01:36:33;2.38;;;0.60;;
57752;SDS011;43583;53.132;6.574;2024-03-02T01:38:59;1.98;;;0.45;;
57752;SDS011;43583;53.132;6.574;2024-03-02T01:41:24;1.00;;;0.40;;
57752;SDS011;43583;53.132;6.574;2024-03-02T01:43:50;1.80;;;0.45;;
57752;SDS011;43583;53.132;6.574;2024-03-02T01:46:16;1.88;;;1.27;;
57752;SDS011;43583;53.132;6.574;2024-03-02T01:48:41;1.48;;;0.52;;
57752;SDS011;43583;53.132;6.574;2024-03-02T01:51:07;2.45;;;0.60;;
57752;SDS011;43583;53.132;6.574;2024-03-02T01:53:34;1.30;;;0.40;;
57752;SDS011;43583;53.132;6.574;2024-03-02T01:56:00;3.78;;;0.52;;
57752;SDS011;43583;53.132;6.574;2024-03-02T01:58:26;1.50;;;0.40;;
57752;SDS011;43583;53.132;6.574;2024-03-02T02:00:52;2.95;;;0.70;;
57752;SDS011;43583;53.132;6.574;2024-03-02T02:03:18;2.63;;;0.70;;
57752;SDS011;43583;53.132;6.574;2024-03-02T02:05:44;1.35;;;0.60;;
57752;SDS011;43583;53.132;6.574;2024-03-02T02:08:10;1.20;;;0.50;;
57752;SDS011;43583;53.132;6.574;2024-03-02T02:10:36;3.60;;;0.82;;
57752;SDS011;43583;53.132;6.574;2024-03-02T02:13:02;1.50;;;0.98;;
57752;SDS011;43583;53.132;6.574;2024-03-02T02:15:31;1.35;;;0.40;;
57752;SDS011;43583;53.132;6.574;2024-03-02T02:17:57;2.88;;;0.60;;
57752;SDS011;43583;53.132;6.574;2024-03-02T02:20:24;1.00;;;0.88;;
57752;SDS011;43583;53.132;6.574;2024-03-02T02:23:03;1.42;;;0.50;;
57752;SDS011;43583;53.132;6.574;2024-03-02T02:25:34;1.08;;;0.60;;
57752;SDS011;43583;53.132;6.574;2024-03-02T02:28:00;1.92;;;0.57;;
57752;SDS011;43583;53.132;6.574;2024-03-02T02:30:30;2.67;;;0.73;;
57752;SDS011;43583;53.132;6.574;2024-03-02T02:32:57;1.20;;;0.60;;
57752;SDS011;43583;53.132;6.574;2024-03-02T02:35:24;2.03;;;0.50;;
57752;SDS011;43583;53.132;6.574;2024-03-02T02:37:50;3.45;;;0.57;;
57752;SDS011;43583;53.132;6.574;2024-03-02T02:40:17;1.38;;;0.80;;
57752;SDS011;43583;53.132;6.574;2024-03-02T02:42:44;2.10;;;0.68;;
57752;SDS011;43583;53.132;6.574;2024-03-02T02:45:10;1.63;;;0.98;;
57752;SDS011;43583;53.132;6.574;2024-03-02T02:47:38;2.55;;;0.90;;
57752;SDS011;43583;53.132;6.574;2024-03-02T02:50:04;2.83;;;0.60;;
57752;SDS011;43583;53.132;6.574;2024-03-02T02:52:32;1.35;;;0.45;;
57752;SDS011;43583;53.132;6.574;2024-03-02T02:55:00;1.30;;;0.52;;
57752;SDS011;43583;53.132;6.574;2024-03-02T02:57:27;0.80;;;0.30;;
57752;SDS011;43583;53.132;6.574;2024-03-02T02:59:55;2.13;;;0.90;;
57752;SDS011;43583;53.132;6.574;2024-03-02T03:02:21;2.10;;;0.60;;
57752;SDS011;43583;53.132;6.574;2024-03-02T03:04:47;1.50;;;0.63;;
57752;SDS011;43583;53.132;6.574;2024-03-02T03:07:13;1.83;;;0.55;;
57752;SDS011;43583;53.132;6.574;2024-03-02T03:09:38;2.05;;;0.40;;
57752;SDS011;43583;53.132;6.574;2024-03-02T03:12:04;1.55;;;0.80;;
57752;SDS011;43583;53.132;6.574;2024-03-02T03:14:30;1.90;;;0.73;;
57752;SDS011;43583;53.132;6.574;2024-03-02T03:16:55;1.33;;;0.47;;
57752;SDS011;43583;53.132;6.574;2024-03-02T03:19:21;1.08;;;0.38;;
57752;SDS011;43583;53.132;6.574;2024-03-02T03:21:47;0.70;;;0.30;;
57752;SDS011;43583;53.132;6.574;2024-03-02T03:24:12;0.73;;;0.30;;
57752;SDS011;43583;53.132;6.574;2024-03-02T03:26:38;3.85;;;0.40;;
57752;SDS011;43583;53.132;6.574;2024-03-02T03:29:04;1.13;;;0.47;;
57752;SDS011;43583;53.132;6.574;2024-03-02T03:31:30;2.28;;;0.50;;
57752;SDS011;43583;53.132;6.574;2024-03-02T03:33:56;1.83;;;0.63;;
57752;SDS011;43583;53.132;6.574;2024-03-02T03:36:22;1.05;;;0.47;;
57752;SDS011;43583;53.132;6.574;2024-03-02T03:38:48;1.73;;;0.88;;
57752;SDS011;43583;53.132;6.574;2024-03-02T03:41:14;1.35;;;0.80;;
57752;SDS011;43583;53.132;6.574;2024-03-02T03:43:40;1.30;;;0.43;;
57752;SDS011;43583;53.132;6.574;2024-03-02T03:46:06;1.65;;;0.50;;
57752;SDS011;43583;53.132;6.574;2024-03-02T03:48:31;0.60;;;0.30;;
57752;SDS011;43583;53.132;6.574;2024-03-02T03:50:57;2.45;;;0.40;;
57752;SDS011;43583;53.132;6.574;2024-03-02T03:53:23;1.80;;;0.38;;
57752;SDS011;43583;53.132;6.574;2024-03-02T03:55:49;0.85;;;0.20;;
57752;SDS011;43583;53.132;6.574;2024-03-02T03:58:15;1.30;;;0.45;;
57752;SDS011;43583;53.132;6.574;2024-03-02T04:00:42;2.08;;;0.50;;
57752;SDS011;43583;53.132;6.574;2024-03-02T04:03:08;1.05;;;0.50;;
57752;SDS011;43583;53.132;6.574;2024-03-02T04:05:33;1.42;;;0.35;;
57752;SDS011;43583;53.132;6.574;2024-03-02T04:07:59;0.77;;;0.30;;
57752;SDS011;43583;53.132;6.574;2024-03-02T04:10:26;1.30;;;0.40;;
57752;SDS011;43583;53.132;6.574;2024-03-02T04:12:51;2.25;;;0.55;;
57752;SDS011;43583;53.132;6.574;2024-03-02T04:15:17;2.50;;;0.45;;
57752;SDS011;43583;53.132;6.574;2024-03-02T04:17:43;0.60;;;0.30;;
57752;SDS011;43583;53.132;6.574;2024-03-02T04:20:09;1.98;;;0.40;;
57752;SDS011;43583;53.132;6.574;2024-03-02T04:22:37;1.83;;;0.47;;
57752;SDS011;43583;53.132;6.574;2024-03-02T04:25:03;2.20;;;0.60;;
57752;SDS011;43583;53.132;6.574;2024-03-02T04:27:30;1.58;;;0.60;;
57752;SDS011;43583;53.132;6.574;2024-03-02T04:29:58;1.20;;;0.45;;
57752;SDS011;43583;53.132;6.574;2024-03-02T04:32:25;1.70;;;0.47;;
57752;SDS011;43583;53.132;6.574;2024-03-02T04:34:52;1.05;;;0.30;;
57752;SDS011;43583;53.132;6.574;2024-03-02T04:37:18;2.10;;;0.55;;
57752;SDS011;43583;53.132;6.574;2024-03-02T04:39:44;1.65;;;0.80;;
57752;SDS011;43583;53.132;6.574;2024-03-02T04:42:09;1.77;;;0.50;;
57752;SDS011;43583;53.132;6.574;2024-03-02T04:44:35;1.73;;;0.30;;
57752;SDS011;43583;53.132;6.574;2024-03-02T04:47:03;1.45;;;0.82;;
57752;SDS011;43583;53.132;6.574;2024-03-02T04:49:29;3.45;;;0.50;;
57752;SDS011;43583;53.132;6.574;2024-03-02T04:51:55;1.45;;;0.55;;
57752;SDS011;43583;53.132;6.574;2024-03-02T04:54:21;1.48;;;0.40;;
57752;SDS011;43583;53.132;6.574;2024-03-02T04:56:48;2.78;;;0.40;;
57752;SDS011;43583;53.132;6.574;2024-03-02T04:59:16;1.15;;;0.30;;
57752;SDS011;43583;53.132;6.574;2024-03-02T05:01:45;1.42;;;0.63;;
57752;SDS011;43583;53.132;6.574;2024-03-02T05:04:12;3.00;;;0.50;;
57752;SDS011;43583;53.132;6.574;2024-03-02T05:06:38;1.45;;;0.93;;
57752;SDS011;43583;53.132;6.574;2024-03-02T05:09:08;2.10;;;0.43;;
57752;SDS011;43583;53.132;6.574;2024-03-02T05:11:34;2.05;;;0.40;;
57752;SDS011;43583;53.132;6.574;2024-03-02T05:14:06;1.80;;;0.52;;
57752;SDS011;43583;53.132;6.574;2024-03-02T05:16:35;1.95;;;0.70;;
57752;SDS011;43583;53.132;6.574;2024-03-02T05:19:05;0.88;;;0.30;;
57752;SDS011;43583;53.132;6.574;2024-03-02T05:21:33;2.65;;;0.60;;
57752;SDS011;43583;53.132;6.574;2024-03-02T05:23:59;2.72;;;1.35;;
57752;SDS011;43583;53.132;6.574;2024-03-02T05:26:25;1.83;;;0.60;;
57752;SDS011;43583;53.132;6.574;2024-03-02T05:28:51;1.55;;;0.60;;
57752;SDS011;43583;53.132;6.574;2024-03-02T05:31:16;1.10;;;0.52;;
57752;SDS011;43583;53.132;6.574;2024-03-02T05:33:42;1.00;;;0.40;;
57752;SDS011;43583;53.132;6.574;2024-03-02T05:36:08;2.72;;;0.50;;
57752;SDS011;43583;53.132;6.574;2024-03-02T05:38:34;1.55;;;0.93;;
57752;SDS011;43583;53.132;6.574;2024-03-02T05:41:00;1.70;;;0.80;;
57752;SDS011;43583;53.132;6.574;2024-03-02T05:43:26;1.58;;;0.52;;
57752;SDS011;43583;53.132;6.574;2024-03-02T05:45:52;2.08;;;0.82;;
57752;SDS011;43583;53.132;6.574;2024-03-02T05:48:18;2.78;;;0.68;;
57752;SDS011;43583;53.132;6.574;2024-03-02T05:50:43;2.15;;;0.80;;
57752;SDS011;43583;53.132;6.574;2024-03-02T05:53:09;1.50;;;0.50;;
57752;SDS011;43583;53.132;6.574;2024-03-02T05:55:35;2.25;;;0.60;;
57752;SDS011;43583;53.132;6.574;2024-03-02T05:58:01;3.38;;;0.80;;
57752;SDS011;43583;53.132;6.574;2024-03-02T06:00:32;2.22;;;0.85;;
57752;SDS011;43583;53.132;6.574;2024-03-02T06:02:58;1.10;;;0.43;;
57752;SDS011;43583;53.132;6.574;2024-03-02T06:05:24;1.30;;;0.50;;
57752;SDS011;43583;53.132;6.574;2024-03-02T06:07:50;1.55;;;0.80;;
57752;SDS011;43583;53.132;6.574;2024-03-02T06:10:15;1.27;;;0.60;;
57752;SDS011;43583;53.132;6.574;2024-03-02T06:12:42;3.10;;;0.47;;
57752;SDS011;43583;53.132;6.574;2024-03-02T06:15:08;1.00;;;0.40;;
57752;SDS011;43583;53.132;6.574;2024-03-02T06:17:36;1.98;;;0.40;;
57752;SDS011;43583;53.132;6.574;2024-03-02T06:20:01;1.15;;;0.77;;
57752;SDS011;43583;53.132;6.574;2024-03-02T06:22:27;1.13;;;0.60;;
57752;SDS011;43583;53.132;6.574;2024-03-02T06:24:53;2.40;;;0.63;;
57752;SDS011;43583;53.132;6.574;2024-03-02T06:27:19;1.70;;;0.35;;
57752;SDS011;43583;53.132;6.574;2024-03-02T06:29:45;1.13;;;0.32;;
57752;SDS011;43583;53.132;6.574;2024-03-02T06:32:10;3.50;;;0.70;;
57752;SDS011;43583;53.132;6.574;2024-03-02T06:34:36;2.35;;;1.23;;
57752;SDS011;43583;53.132;6.574;2024-03-02T06:37:02;1.17;;;0.30;;
57752;SDS011;43583;53.132;6.574;2024-03-02T06:39:28;1.13;;;0.40;;
57752;SDS011;43583;53.132;6.574;2024-03-02T06:41:53;1.63;;;0.70;;
57752;SDS011;43583;53.132;6.574;2024-03-02T06:44:19;0.75;;;0.30;;
57752;SDS011;43583;53.132;6.574;2024-03-02T06:46:46;0.80;;;0.30;;
57752;SDS011;43583;53.132;6.574;2024-03-02T06:49:12;1.20;;;0.30;;
57752;SDS011;43583;53.132;6.574;2024-03-02T06:51:37;1.63;;;0.40;;
57752;SDS011;43583;53.132;6.574;2024-03-02T06:54:03;2.67;;;0.30;;
57752;SDS011;43583;53.132;6.574;2024-03-02T06:56:29;2.05;;;0.32;;
57752;SDS011;43583;53.132;6.574;2024-03-02T06:58:55;2.45;;;0.40;;
57752;SDS011;43583;53.132;6.574;2024-03-02T07:01:21;2.10;;;0.30;;
57752;SDS011;43583;53.132;6.574;2024-03-02T07:03:47;1.55;;;0.40;;
57752;SDS011;43583;53.132;6.574;2024-03-02T07:06:12;1.98;;;0.50;;
57752;SDS011;43583;53.132;6.574;2024-03-02T07:08:38;1.92;;;0.50;;
57752;SDS011;43583;53.132;6.574;2024-03-02T07:11:04;1.73;;;0.55;;
57752;SDS011;43583;53.132;6.574;2024-03-02T07:13:30;0.88;;;0.38;;
57752;SDS011;43583;53.132;6.574;2024-03-02T07:15:55;2.58;;;0.40;;
57752;SDS011;43583;53.132;6.574;2024-03-02T07:18:36;1.35;;;0.50;;
57752;SDS011;43583;53.132;6.574;2024-03-02T07:21:09;1.30;;;0.50;;
57752;SDS011;43583;53.132;6.574;2024-03-02T07:23:35;1.63;;;0.60;;
57752;SDS011;43583;53.132;6.574;2024-03-02T07:26:01;1.50;;;0.50;;
57752;SDS011;43583;53.132;6.574;2024-03-02T07:28:28;1.33;;;0.50;;
57752;SDS011;43583;53.132;6.574;2024-03-02T07:30:58;2.85;;;0.98;;
57752;SDS011;43583;53.132;6.574;2024-03-02T07:33:28;3.15;;;0.85;;
57752;SDS011;43583;53.132;6.574;2024-03-02T07:35:54;2.38;;;0.60;;
57752;SDS011;43583;53.132;6.574;2024-03-02T07:38:20;1.35;;;0.77;;
57752;SDS011;43583;53.132;6.574;2024-03-02T07:40:47;1.50;;;0.60;;
57752;SDS011;43583;53.132;6.574;2024-03-02T07:43:17;2.17;;;0.60;;
57752;SDS011;43583;53.132;6.574;2024-03-02T07:45:44;1.42;;;0.52;;
57752;SDS011;43583;53.132;6.574;2024-03-02T07:48:10;2.00;;;0.57;;
57752;SDS011;43583;53.132;6.574;2024-03-02T07:50:36;3.30;;;0.70;;
57752;SDS011;43583;53.132;6.574;2024-03-02T07:53:02;1.30;;;0.60;;
57752;SDS011;43583;53.132;6.574;2024-03-02T07:55:28;2.13;;;0.40;;
57752;SDS011;43583;53.132;6.574;2024-03-02T07:57:55;1.55;;;0.50;;
57752;SDS011;43583;53.132;6.574;2024-03-02T08:00:22;1.13;;;0.50;;
57752;SDS011;43583;53.132;6.574;2024-03-02T08:02:48;1.35;;;0.32;;
57752;SDS011;43583;53.132;6.574;2024-03-02T08:05:16;2.97;;;0.50;;
57752;SDS011;43583;53.132;6.574;2024-03-02T08:07:44;1.35;;;0.30;;
57752;SDS011;43583;53.132;6.574;2024-03-02T08:10:10;1.30;;;0.40;;
57752;SDS011;43583;53.132;6.574;2024-03-02T08:12:36;2.35;;;0.40;;
57752;SDS011;43583;53.132;6.574;2024-03-02T08:15:02;0.98;;;0.20;;
57752;SDS011;43583;53.132;6.574;2024-03-02T08:17:28;0.80;;;0.20;;
57752;SDS011;43583;53.132;6.574;2024-03-02T08:19:54;0.90;;;0.38;;
57752;SDS011;43583;53.132;6.574;2024-03-02T08:22:20;1.45;;;0.20;;
57752;SDS011;43583;53.132;6.574;2024-03-02T08:24:45;0.93;;;0.20;;
57752;SDS011;43583;53.132;6.574;2024-03-02T08:27:11;2.85;;;0.20;;
57752;SDS011;43583;53.132;6.574;2024-03-02T08:29:37;1.13;;;0.20;;
57752;SDS011;43583;53.132;6.574;2024-03-02T08:32:03;3.42;;;0.30;;
57752;SDS011;43583;53.132;6.574;2024-03-02T08:34:30;1.95;;;0.20;;
57752;SDS011;43583;53.132;6.574;2024-03-02T08:36:55;1.65;;;0.10;;
57752;SDS011;43583;53.132;6.574;2024-03-02T08:39:21;0.95;;;0.20;;
57752;SDS011;43583;53.132;6.574;2024-03-02T08:41:47;0.40;;;0.20;;
57752;SDS011;43583;53.132;6.574;2024-03-02T08:44:13;3.25;;;0.60;;
57752;SDS011;43583;53.132;6.574;2024-03-02T08:46:39;0.73;;;0.10;;
57752;SDS011;43583;53.132;6.574;2024-03-02T08:49:06;1.00;;;0.20;;
57752;SDS011;43583;53.132;6.574;2024-03-02T08:51:32;1.08;;;0.15;;
57752;SDS011;43583;53.132;6.574;2024-03-02T08:53:58;0.85;;;0.10;;
57752;SDS011;43583;53.132;6.574;2024-03-02T08:56:24;0.75;;;0.20;;
57752;SDS011;43583;53.132;6.574;2024-03-02T08:58:50;1.63;;;0.10;;
57752;SDS011;43583;53.132;6.574;2024-03-02T09:01:18;0.65;;;0.10;;
57752;SDS011;43583;53.132;6.574;2024-03-02T09:03:46;0.50;;;0.10;;
57752;SDS011;43583;53.132;6.574;2024-03-02T09:06:14;1.48;;;0.10;;
57752;SDS011;43583;53.132;6.574;2024-03-02T09:08:44;0.60;;;0.10;;
57752;SDS011;43583;53.132;6.574;2024-03-02T09:11:10;0.75;;;0.50;;
57752;SDS011;43583;53.132;6.574;2024-03-02T09:13:37;1.98;;;0.80;;
57752;SDS011;43583;53.132;6.574;2024-03-02T09:16:03;0.50;;;0.17;;
57752;SDS011;43583;53.132;6.574;2024-03-02T09:18:30;0.85;;;0.20;;
57752;SDS011;43583;53.132;6.574;2024-03-02T09:20:56;0.88;;;0.17;;
57752;SDS011;43583;53.132;6.574;2024-03-02T09:23:21;0.32;;;0.03;;
57752;SDS011;43583;53.132;6.574;2024-03-02T09:25:47;1.85;;;0.17;;
57752;SDS011;43583;53.132;6.574;2024-03-02T09:28:15;1.40;;;0.10;;
57752;SDS011;43583;53.132;6.574;2024-03-02T09:30:41;0.45;;;0.00;;
57752;SDS011;43583;53.132;6.574;2024-03-02T09:33:06;1.00;;;0.03;;
57752;SDS011;43583;53.132;6.574;2024-03-02T09:35:32;2.38;;;0.40;;
57752;SDS011;43583;53.132;6.574;2024-03-02T09:37:58;2.40;;;0.10;;
57752;SDS011;43583;53.132;6.574;2024-03-02T09:40:23;0.52;;;0.10;;
57752;SDS011;43583;53.132;6.574;2024-03-02T09:42:50;0.88;;;0.10;;
57752;SDS011;43583;53.132;6.574;2024-03-02T09:45:22;0.68;;;0.10;;
57752;SDS011;43583;53.132;6.574;2024-03-02T09:47:49;0.47;;;0.03;;
57752;SDS011;43583;53.132;6.574;2024-03-02T09:50:15;1.25;;;0.08;;
57752;SDS011;43583;53.132;6.574;2024-03-02T09:52:47;2.15;;;0.30;;
57752;SDS011;43583;53.132;6.574;2024-03-02T09:55:14;1.15;;;0.10;;
57752;SDS011;43583;53.132;6.574;2024-03-02T09:57:42;0.55;;;0.10;;
57752;SDS011;43583;53.132;6.574;2024-03-02T10:00:08;0.80;;;0.10;;
57752;SDS011;43583;53.132;6.574;2024-03-02T10:02:34;1.35;;;0.10;;
57752;SDS011;43583;53.132;6.574;2024-03-02T10:05:00;0.65;;;0.00;;
57752;SDS011;43583;53.132;6.574;2024-03-02T10:07:29;1.13;;;0.10;;
57752;SDS011;43583;53.132;6.574;2024-03-02T10:09:55;0.40;;;0.00;;
57752;SDS011;43583;53.132;6.574;2024-03-02T10:12:20;0.20;;;0.00;;
57752;SDS011;43583;53.132;6.574;2024-03-02T10:14:47;1.38;;;0.20;;
57752;SDS011;43583;53.132;6.574;2024-03-02T10:17:18;1.83;;;0.10;;
57752;SDS011;43583;53.132;6.574;2024-03-02T10:19:43;0.75;;;0.05;;
57752;SDS011;43583;53.132;6.574;2024-03-02T10:22:09;0.22;;;0.00;;
57752;SDS011;43583;53.132;6.574;2024-03-02T10:24:39;0.63;;;0.08;;
57752;SDS011;43583;53.132;6.574;2024-03-02T10:27:07;1.55;;;0.10;;
57752;SDS011;43583;53.132;6.574;2024-03-02T10:29:36;0.73;;;0.10;;
57752;SDS011;43583;53.132;6.574;2024-03-02T10:32:04;4.18;;;0.10;;
57752;SDS011;43583;53.132;6.574;2024-03-02T10:34:31;1.02;;;0.10;;
57752;SDS011;43583;53.132;6.574;2024-03-02T10:36:58;1.65;;;0.10;;
57752;SDS011;43583;53.132;6.574;2024-03-02T10:39:24;0.85;;;0.10;;
57752;SDS011;43583;53.132;6.574;2024-03-02T10:41:51;0.65;;;0.10;;
57752;SDS011;43583;53.132;6.574;2024-03-02T10:44:18;0.60;;;0.10;;
57752;SDS011;43583;53.132;6.574;2024-03-02T10:46:45;0.80;;;0.10;;
57752;SDS011;43583;53.132;6.574;2024-03-02T10:49:12;0.95;;;0.20;;
57752;SDS011;43583;53.132;6.574;2024-03-02T10:51:38;0.28;;;0.10;;
57752;SDS011;43583;53.132;6.574;2024-03-02T10:54:04;4.32;;;0.17;;
57752;SDS011;43583;53.132;6.574;2024-03-02T10:56:31;1.15;;;0.28;;
57752;SDS011;43583;53.132;6.574;2024-03-02T10:59:33;0.55;;;0.10;;
57752;SDS011;43583;53.132;6.574;2024-03-02T11:02:01;1.38;;;0.20;;
57752;SDS011;43583;53.132;6.574;2024-03-02T11:04:31;0.20;;;0.03;;
57752;SDS011;43583;53.132;6.574;2024-03-02T11:07:02;0.90;;;0.13;;
57752;SDS011;43583;53.132;6.574;2024-03-02T11:09:40;2.58;;;0.10;;
57752;SDS011;43583;53.132;6.574;2024-03-02T11:12:11;1.48;;;0.63;;
57752;SDS011;43583;53.132;6.574;2024-03-02T11:14:43;0.32;;;0.10;;
57752;SDS011;43583;53.132;6.574;2024-03-02T11:17:18;0.65;;;0.10;;
57752;SDS011;43583;53.132;6.574;2024-03-02T11:19:47;0.28;;;0.00;;
57752;SDS011;43583;53.132;6.574;2024-03-02T11:22:14;0.85;;;0.10;;
57752;SDS011;43583;53.132;6.574;2024-03-02T11:24:50;0.30;;;0.05;;
57752;SDS011;43583;53.132;6.574;2024-03-02T11:33:31;0.60;;;0.30;;
57752;SDS011;43583;53.132;6.574;2024-03-02T11:36:05;0.75;;;0.00;;
57752;SDS011;43583;53.132;6.574;2024-03-02T11:39:13;1.00;;;0.03;;
57752;SDS011;43583;53.132;6.574;2024-03-02T11:41:55;1.33;;;0.08;;
57752;SDS011;43583;53.132;6.574;2024-03-02T11:45:16;0.20;;;0.00;;
57752;SDS011;43583;53.132;6.574;2024-03-02T11:48:29;1.33;;;0.10;;
57752;SDS011;43583;53.132;6.574;2024-03-02T11:54:51;0.35;;;0.10;;
57752;SDS011;43583;53.132;6.574;2024-03-02T12:16:40;1.73;;;0.10;;
57752;SDS011;43583;53.132;6.574;2024-03-02T12:20:17;0.57;;;0.10;;
57752;SDS011;43583;53.132;6.574;2024-03-02T12:22:43;2.05;;;0.13;;
57752;SDS011;43583;53.132;6.574;2024-03-02T12:25:09;1.00;;;0.38;;
57752;SDS011;43583;53.132;6.574;2024-03-02T12:27:35;0.20;;;0.00;;
57752;SDS011;43583;53.132;6.574;2024-03-02T12:30:01;0.77;;;0.10;;
57752;SDS011;43583;53.132;6.574;2024-03-02T12:32:29;0.40;;;0.10;;
57752;SDS011;43583;53.132;6.574;2024-03-02T12:34:58;1.67;;;0.10;;
57752;SDS011;43583;53.132;6.574;2024-03-02T12:37:26;2.40;;;0.10;;
57752;SDS011;43583;53.132;6.574;2024-03-02T12:39:53;1.20;;;0.20;;
57752;SDS011;43583;53.132;6.574;2024-03-02T12:42:21;1.13;;;0.10;;
57752;SDS011;43583;53.132;6.574;2024-03-02T12:44:48;2.20;;;0.10;;
57752;SDS011;43583;53.132;6.574;2024-03-02T12:47:17;1.73;;;0.10;;
57752;SDS011;43583;53.132;6.574;2024-03-02T12:49:43;0.55;;;0.10;;
57752;SDS011;43583;53.132;6.574;2024-03-02T12:52:14;1.50;;;0.68;;
57752;SDS011;43583;53.132;6.574;2024-03-02T12:54:40;1.33;;;0.00;;
57752;SDS011;43583;53.132;6.574;2024-03-02T12:57:16;2.05;;;0.10;;
57752;SDS011;43583;53.132;6.574;2024-03-02T12:59:45;1.35;;;0.30;;
57752;SDS011;43583;53.132;6.574;2024-03-02T13:06:25;0.40;;;0.20;;
57752;SDS011;43583;53.132;6.574;2024-03-02T13:09:12;1.50;;;0.50;;
57752;SDS011;43583;53.132;6.574;2024-03-02T13:12:08;0.43;;;0.25;;
57752;SDS011;43583;53.132;6.574;2024-03-02T13:14:57;1.33;;;0.20;;
57752;SDS011;43583;53.132;6.574;2024-03-02T13:17:42;2.22;;;0.20;;
57752;SDS011;43583;53.132;6.574;2024-03-02T13:52:06;1.80;;;0.60;;
57752;SDS011;43583;53.132;6.574;2024-03-02T13:55:43;1.25;;;1.08;;
57752;SDS011;43583;53.132;6.574;2024-03-02T15:25:15;1.02;;;0.30;;
57752;SDS011;43583;53.132;6.574;2024-03-02T15:29:19;0.95;;;0.20;;
57752;SDS011;43583;53.132;6.574;2024-03-02T15:31:53;1.00;;;0.40;;
57752;SDS011;43583;53.132;6.574;2024-03-02T15:34:19;0.80;;;0.30;;
57752;SDS011;43583;53.132;6.574;2024-03-02T15:36:47;1.67;;;0.30;;
57752;SDS011;43583;53.132;6.574;2024-03-02T15:39:14;1.52;;;0.60;;
57752;SDS011;43583;53.132;6.574;2024-03-02T15:41:39;3.15;;;0.40;;
57752;SDS011;43583;53.132;6.574;2024-03-02T15:44:08;1.73;;;0.35;;
57752;SDS011;43583;53.132;6.574;2024-03-02T15:46:33;2.55;;;0.40;;
57752;SDS011;43583;53.132;6.574;2024-03-02T15:49:00;1.20;;;0.30;;
57752;SDS011;43583;53.132;6.574;2024-03-02T15:51:26;1.85;;;0.47;;
57752;SDS011;43583;53.132;6.574;2024-03-02T15:53:52;1.42;;;0.40;;
57752;SDS011;43583;53.132;6.574;2024-03-02T15:56:18;3.00;;;0.55;;
57752;SDS011;43583;53.132;6.574;2024-03-02T15:58:44;0.82;;;0.30;;
57752;SDS011;43583;53.132;6.574;2024-03-02T16:01:11;3.35;;;0.40;;
57752;SDS011;43583;53.132;6.574;2024-03-02T16:03:37;1.40;;;0.55;;
57752;SDS011;43583;53.132;6.574;2024-03-02T16:06:03;1.10;;;0.30;;
57752;SDS011;43583;53.132;6.574;2024-03-02T16:08:29;2.50;;;1.05;;
57752;SDS011;43583;53.132;6.574;2024-03-02T16:10:54;1.50;;;0.40;;
57752;SDS011;43583;53.132;6.574;2024-03-02T16:13:21;2.00;;;0.35;;
57752;SDS011;43583;53.132;6.574;2024-03-02T16:15:47;1.00;;;0.40;;
57752;SDS011;43583;53.132;6.574;2024-03-02T16:18:13;2.45;;;0.38;;
57752;SDS011;43583;53.132;6.574;2024-03-02T16:20:38;0.82;;;0.40;;
57752;SDS011;43583;53.132;6.574;2024-03-02T16:23:04;1.52;;;0.55;;
57752;SDS011;43583;53.132;6.574;2024-03-02T16:25:30;1.33;;;0.50;;
57752;SDS011;43583;53.132;6.574;2024-03-02T16:27:56;2.78;;;1.05;;
57752;SDS011;43583;53.132;6.574;2024-03-02T16:30:22;1.95;;;0.55;;
57752;SDS011;43583;53.132;6.574;2024-03-02T16:32:50;2.38;;;0.73;;
57752;SDS011;43583;53.132;6.574;2024-03-02T16:35:15;2.33;;;0.63;;
57752;SDS011;43583;53.132;6.574;2024-03-02T16:37:41;1.65;;;0.70;;
57752;SDS011;43583;53.132;6.574;2024-03-02T16:40:07;2.45;;;0.82;;
57752;SDS011;43583;53.132;6.574;2024-03-02T16:42:34;1.92;;;0.85;;
57752;SDS011;43583;53.132;6.574;2024-03-02T16:45:00;1.45;;;0.60;;
57752;SDS011;43583;53.132;6.574;2024-03-02T16:47:26;1.70;;;0.77;;
57752;SDS011;43583;53.132;6.574;2024-03-02T16:49:52;4.28;;;0.70;;
57752;SDS011;43583;53.132;6.574;2024-03-02T16:52:18;2.33;;;1.05;;
57752;SDS011;43583;53.132;6.574;2024-03-02T16:54:43;2.08;;;0.65;;
57752;SDS011;43583;53.132;6.574;2024-03-02T16:57:13;1.95;;;0.60;;
57752;SDS011;43583;53.132;6.574;2024-03-02T16:59:42;2.13;;;0.63;;
57752;SDS011;43583;53.132;6.574;2024-03-02T17:02:09;1.63;;;0.70;;
57752;SDS011;43583;53.132;6.574;2024-03-02T17:04:37;1.50;;;0.80;;
57752;SDS011;43583;53.132;6.574;2024-03-02T17:07:03;1.70;;;0.82;;
57752;SDS011;43583;53.132;6.574;2024-03-02T17:09:29;1.55;;;0.43;;
57752;SDS011;43583;53.132;6.574;2024-03-02T17:11:55;1.52;;;0.85;;
57752;SDS011;43583;53.132;6.574;2024-03-02T17:14:21;1.48;;;0.68;;
57752;SDS011;43583;53.132;6.574;2024-03-02T17:16:47;2.65;;;0.98;;
57752;SDS011;43583;53.132;6.574;2024-03-02T17:19:14;2.60;;;0.60;;
57752;SDS011;43583;53.132;6.574;2024-03-02T17:21:40;5.57;;;1.15;;
57752;SDS011;43583;53.132;6.574;2024-03-02T17:24:08;3.42;;;0.98;;
57752;SDS011;43583;53.132;6.574;2024-03-02T17:26:34;2.58;;;0.90;;
57752;SDS011;43583;53.132;6.574;2024-03-02T17:29:00;4.07;;;1.33;;